createdAt,value
2023-01-17T00:01:11.788Z,26.55
2023-01-17T00:04:16.006Z,20.85
2023-01-17T00:07:19.941Z,23.40
2023-01-17T00:10:11.376Z,27.13
2023-01-17T00:13:02.546Z,24.13
2023-01-17T00:15:48.033Z,27.40
2023-01-17T00:18:33.609Z,31.52
2023-01-17T00:21:37.422Z,29.70
2023-01-17T00:24:41.639Z,20.75
2023-01-17T00:27:27.006Z,23.08
2023-01-17T00:30:12.839Z,26.90
2023-01-17T00:32:58.374Z,25.55
2023-01-17T00:35:43.945Z,31.90
2023-01-17T00:38:31.735Z,29.60
2023-01-17T00:41:17.435Z,31.65
2023-01-17T00:44:21.479Z,36.22
2023-01-17T00:47:25.380Z,31.25
2023-01-17T00:50:29.494Z,33.47
2023-01-17T00:53:33.653Z,36.83
2023-01-17T00:56:37.627Z,35.67
2023-01-17T00:59:41.541Z,38.00
2023-01-17T01:02:46.602Z,27.90
2023-01-17T01:05:50.532Z,33.25
2023-01-17T01:08:54.665Z,40.45
2023-01-17T01:11:58.771Z,32.30
2023-01-17T01:15:02.850Z,31.20
2023-01-17T01:18:07.296Z,35.85
2023-01-17T01:21:11.793Z,30.20
2023-01-17T01:24:15.682Z,27.38
2023-01-17T01:27:19.589Z,32.58
2023-01-17T01:30:24.250Z,24.95
2023-01-17T01:33:19.532Z,33.83
2023-01-17T01:36:07.589Z,33.72
2023-01-17T01:38:54.548Z,35.05
2023-01-17T01:41:40.373Z,41.22
2023-01-17T01:44:46.428Z,41.78
2023-01-17T01:47:40.759Z,45.92
2023-01-17T01:50:27.962Z,35.78
2023-01-17T01:53:13.178Z,43.65
2023-01-17T01:55:59.395Z,40.13
2023-01-17T01:58:48.762Z,39.75
2023-01-17T02:01:34.560Z,44.35
2023-01-17T02:04:22.108Z,44.88
2023-01-17T02:07:16.644Z,50.40
2023-01-17T02:10:03.930Z,40.47
2023-01-17T02:12:49.783Z,46.72
2023-01-17T02:16:23.624Z,65.10
2023-01-17T02:19:18.003Z,46.47
2023-01-17T02:22:09.633Z,36.97
2023-01-17T02:25:23.722Z,36.38
2023-01-17T02:28:24.327Z,35.10
2023-01-17T02:31:42.430Z,32.80
2023-01-17T02:34:51.320Z,47.20
2023-01-17T02:37:45.729Z,40.72
2023-01-17T02:41:03.669Z,39.03
2023-01-17T02:43:53.729Z,39.83
2023-01-17T02:46:47.824Z,42.33
2023-01-17T02:49:33.109Z,41.05
2023-01-17T02:52:21.629Z,38.63
2023-01-17T02:55:37.970Z,36.33
2023-01-17T02:58:45.592Z,43.15
2023-01-17T03:01:46.782Z,42.42
2023-01-17T03:04:41.239Z,35.47
2023-01-17T03:07:29.337Z,39.47
2023-01-17T03:10:17.448Z,35.88
2023-01-17T03:13:03.975Z,34.20
2023-01-17T03:15:49.546Z,42.30
2023-01-17T03:18:35.313Z,41.67
2023-01-17T03:21:22.170Z,44.20
2023-01-17T03:24:07.938Z,44.85
2023-01-17T03:26:53.969Z,41.35
2023-01-17T03:29:39.499Z,50.28
2023-01-17T03:32:24.882Z,39.15
2023-01-17T03:35:10.239Z,61.42
2023-01-17T03:37:55.623Z,51.33
2023-01-17T03:40:41.594Z,58.47
2023-01-17T03:43:26.883Z,48.35
2023-01-17T03:46:24.550Z,47.78
2023-01-17T03:49:10.286Z,61.85
2023-01-17T03:51:55.711Z,65.88
2023-01-17T03:54:41.157Z,46.30
2023-01-17T03:57:29.883Z,54.90
2023-01-17T04:00:15.929Z,46.17
2023-01-17T04:03:01.655Z,53.47
2023-01-17T04:05:46.997Z,40.45
2023-01-17T04:08:32.474Z,46.13
2023-01-17T04:11:17.844Z,51.15
2023-01-17T04:14:03.142Z,51.83
2023-01-17T04:16:48.662Z,53.45
2023-01-17T04:19:36.033Z,48.08
2023-01-17T04:22:21.308Z,33.80
2023-01-17T04:25:07.113Z,34.05
2023-01-17T04:27:53.952Z,39.78
2023-01-17T04:30:39.678Z,40.13
2023-01-17T04:33:25.318Z,36.13
2023-01-17T04:36:10.736Z,36.33
2023-01-17T04:38:56.039Z,36.97
2023-01-17T04:41:41.468Z,39.30
2023-01-17T04:44:27.046Z,37.67
2023-01-17T04:47:12.389Z,44.47
2023-01-17T04:49:57.780Z,57.17
2023-01-17T04:52:43.060Z,64.97
2023-01-17T04:55:28.398Z,50.97
2023-01-17T04:58:13.724Z,46.03
2023-01-17T05:01:07.008Z,52.88
2023-01-17T05:03:52.536Z,42.10
2023-01-17T05:06:37.936Z,49.08
2023-01-17T05:09:23.861Z,40.67
2023-01-17T05:12:09.764Z,40.92
2023-01-17T05:14:55.149Z,46.45
2023-01-17T05:17:40.409Z,43.20
2023-01-17T05:20:27.054Z,52.60
2023-01-17T05:23:12.683Z,49.75
2023-01-17T05:25:58.169Z,48.70
2023-01-17T05:28:43.524Z,49.13
2023-01-17T05:31:28.777Z,43.92
2023-01-17T05:34:14.336Z,39.95
2023-01-17T05:36:59.667Z,39.08
2023-01-17T05:39:45.049Z,41.30
2023-01-17T05:42:30.605Z,47.85
2023-01-17T05:45:17.124Z,49.40
2023-01-17T05:48:03.596Z,55.67
2023-01-17T05:50:49.342Z,50.03
2023-01-17T05:53:34.581Z,53.42
2023-01-17T05:56:19.941Z,42.65
2023-01-17T05:59:05.308Z,43.63
2023-01-17T06:01:50.596Z,40.75
2023-01-17T06:04:35.949Z,41.97
2023-01-17T06:07:21.307Z,36.35
2023-01-17T06:10:07.192Z,42.50
2023-01-17T06:13:08.158Z,37.67
2023-01-17T06:15:53.568Z,40.47
2023-01-17T06:18:38.978Z,38.22
2023-01-17T06:21:24.243Z,35.03
2023-01-17T06:24:09.630Z,33.60
2023-01-17T06:26:55.110Z,32.53
2023-01-17T06:29:40.344Z,33.72
2023-01-17T06:32:25.791Z,40.83
2023-01-17T06:35:11.226Z,40.58
2023-01-17T06:37:58.286Z,46.40
2023-01-17T06:40:44.067Z,62.42
2023-01-17T06:43:33.592Z,214.23
2023-01-17T06:46:20.101Z,72.18
2023-01-17T06:49:05.782Z,39.60
2023-01-17T06:51:51.801Z,48.08
2023-01-17T06:54:37.833Z,353.10
2023-01-17T06:57:23.700Z,151.25
2023-01-17T07:00:10.150Z,103.38
2023-01-17T07:02:56.847Z,59.63
2023-01-17T07:05:42.886Z,38.72
2023-01-17T07:08:30.583Z,37.67
2023-01-17T07:11:17.290Z,32.40
2023-01-17T07:14:02.873Z,29.27
2023-01-17T07:16:50.129Z,24.20
2023-01-17T07:19:35.822Z,32.75
2023-01-17T07:22:21.069Z,29.33
2023-01-17T07:25:06.912Z,29.67
2023-01-17T07:27:57.551Z,27.58
2023-01-17T07:30:43.276Z,35.72
2023-01-17T07:33:28.714Z,32.00
2023-01-17T07:36:14.193Z,34.45
2023-01-17T07:38:59.527Z,38.22
2023-01-17T07:41:45.016Z,38.72
2023-01-17T07:44:30.288Z,48.60
2023-01-17T07:47:15.836Z,52.70
2023-01-17T07:50:01.915Z,49.88
2023-01-17T07:52:50.668Z,57.35
2023-01-17T07:55:36.080Z,57.90
2023-01-17T07:58:22.032Z,40.20
2023-01-17T08:01:10.510Z,28.15
2023-01-17T08:03:56.358Z,31.52
2023-01-17T08:06:44.002Z,39.58
2023-01-17T08:09:30.106Z,35.63
2023-01-17T08:12:15.956Z,25.75
2023-01-17T08:15:01.509Z,19.92
2023-01-17T08:17:48.926Z,22.98
2023-01-17T08:20:34.455Z,20.52
2023-01-17T08:23:20.225Z,23.95
2023-01-17T08:26:05.536Z,19.23
2023-01-17T08:29:00.472Z,20.58
2023-01-17T08:31:46.384Z,22.08
2023-01-17T08:34:33.333Z,27.63
2023-01-17T08:37:18.915Z,22.13
2023-01-17T08:40:05.789Z,20.10
2023-01-17T08:42:56.017Z,19.67
2023-01-17T08:45:44.807Z,18.35
2023-01-17T08:48:30.728Z,24.05
2023-01-17T08:51:16.403Z,17.92
2023-01-17T08:54:01.945Z,22.45
2023-01-17T08:56:47.743Z,40.22
2023-01-17T08:59:33.206Z,40.90
2023-01-17T09:02:20.031Z,59.30
2023-01-17T09:05:06.118Z,24.58
2023-01-17T09:07:51.508Z,20.63
2023-01-17T09:10:36.978Z,50.80
2023-01-17T09:13:22.772Z,34.65
2023-01-17T09:16:09.673Z,46.70
2023-01-17T09:18:56.565Z,30.45
2023-01-17T09:21:41.929Z,18.95
2023-01-17T09:24:27.308Z,24.23
2023-01-17T09:27:12.814Z,26.13
2023-01-17T09:29:58.278Z,20.45
2023-01-17T09:32:43.880Z,24.88
2023-01-17T09:35:29.215Z,32.90
2023-01-17T09:38:14.893Z,32.47
2023-01-17T09:41:02.939Z,36.70
2023-01-17T09:44:11.117Z,35.90
2023-01-17T09:47:02.930Z,28.23
2023-01-17T09:49:49.255Z,29.10
2023-01-17T09:52:35.283Z,23.92
2023-01-17T09:55:21.303Z,17.63
2023-01-17T09:58:12.805Z,20.70
2023-01-17T10:01:08.120Z,20.73
2023-01-17T10:04:45.666Z,24.25
2023-01-17T10:07:44.900Z,24.95
2023-01-17T10:10:42.704Z,22.67
2023-01-17T10:13:53.658Z,26.75
2023-01-17T10:16:58.269Z,29.00
2023-01-17T10:20:00.560Z,29.00
2023-01-17T10:23:30.347Z,35.55
2023-01-17T10:26:24.174Z,34.83
2023-01-17T10:29:20.099Z,23.15
2023-01-17T10:32:11.601Z,20.05
2023-01-17T10:35:03.061Z,30.10
2023-01-17T10:37:50.345Z,26.90
2023-01-17T10:40:44.833Z,21.75
2023-01-17T10:44:08.765Z,23.63
2023-01-17T10:47:20.453Z,39.65
2023-01-17T10:50:06.256Z,60.13
2023-01-17T10:53:01.349Z,77.43
2023-01-17T10:55:56.077Z,41.00
2023-01-17T10:58:41.532Z,37.42
2023-01-17T11:01:27.002Z,40.47
2023-01-17T11:04:21.212Z,40.58
2023-01-17T11:07:19.387Z,37.13
2023-01-17T11:10:05.169Z,53.30
2023-01-17T11:12:50.883Z,31.67
2023-01-17T11:15:39.567Z,24.75
2023-01-17T11:18:31.676Z,36.20
2023-01-17T11:21:23.304Z,37.58
2023-01-17T11:24:12.200Z,30.63
2023-01-17T11:26:58.479Z,28.13
2023-01-17T11:29:44.260Z,29.00
2023-01-17T11:32:32.573Z,23.85
2023-01-17T11:35:44.742Z,26.98
2023-01-17T11:38:30.453Z,17.75
2023-01-17T11:41:21.636Z,19.30
2023-01-17T11:44:33.371Z,29.20
2023-01-17T11:47:21.664Z,17.45
2023-01-17T11:50:23.609Z,16.98
2023-01-17T11:53:21.501Z,18.60
2023-01-17T11:56:23.689Z,19.05
2023-01-17T11:59:24.984Z,15.60
2023-01-17T12:02:39.827Z,18.23
2023-01-17T12:05:53.472Z,19.13
2023-01-17T12:08:44.874Z,21.67
2023-01-17T12:12:08.027Z,18.05
2023-01-17T12:14:56.362Z,14.82
2023-01-17T12:17:53.914Z,18.20
2023-01-17T12:21:10.879Z,16.45
2023-01-17T12:24:25.536Z,20.05
2023-01-17T12:27:14.024Z,23.08
2023-01-17T12:30:15.427Z,19.33
2023-01-17T12:33:20.630Z,19.65
2023-01-17T12:36:21.207Z,24.45
2023-01-17T12:39:11.809Z,27.20
2023-01-17T12:42:22.799Z,26.52
2023-01-17T12:45:20.250Z,30.45
2023-01-17T12:48:11.823Z,22.65
2023-01-17T12:51:07.764Z,17.20
2023-01-17T12:54:09.660Z,19.25
2023-01-17T12:57:09.068Z,21.08
2023-01-17T13:00:03.828Z,20.30
2023-01-17T13:03:24.695Z,21.67
2023-01-17T13:06:20.023Z,18.45
2023-01-17T13:09:05.726Z,16.52
2023-01-17T13:12:01.153Z,12.48
2023-01-17T13:14:47.379Z,16.73
2023-01-17T13:18:09.523Z,17.40
2023-01-17T13:21:15.594Z,15.30
2023-01-17T13:24:03.844Z,18.75
2023-01-17T13:26:55.269Z,13.00
2023-01-17T13:30:19.611Z,18.65
2023-01-17T13:33:39.339Z,21.85
2023-01-17T13:37:13.431Z,17.45
2023-01-17T13:39:58.676Z,16.73
2023-01-17T13:42:59.599Z,13.73
2023-01-17T13:45:59.747Z,21.05
2023-01-17T13:48:44.995Z,31.67
2023-01-17T13:52:19.406Z,31.02
2023-01-17T13:55:07.119Z,26.98
2023-01-17T13:57:52.617Z,27.67
2023-01-17T14:00:44.183Z,33.70
2023-01-17T14:03:54.472Z,32.70
2023-01-17T14:06:48.956Z,37.40
2023-01-17T14:09:42.309Z,39.13
2023-01-17T14:12:32.491Z,50.15
2023-01-17T14:15:23.869Z,41.58
2023-01-17T14:18:42.670Z,38.27
2023-01-17T14:21:35.504Z,34.95
2023-01-17T14:24:21.751Z,58.20
2023-01-17T14:27:22.892Z,44.95
2023-01-17T14:30:37.312Z,46.05
2023-01-17T14:33:43.738Z,35.90
2023-01-17T14:36:32.922Z,31.23
2023-01-17T14:39:22.184Z,26.38
2023-01-17T14:42:13.454Z,24.67
2023-01-17T14:45:08.785Z,28.63
2023-01-17T14:47:57.424Z,25.23
2023-01-17T14:50:44.700Z,33.80
2023-01-17T14:53:32.553Z,51.53
2023-01-17T14:56:18.373Z,64.25
2023-01-17T14:59:16.996Z,88.85
2023-01-17T15:02:08.768Z,71.13
2023-01-17T15:04:55.348Z,35.47
2023-01-17T15:07:43.007Z,35.95
2023-01-17T15:10:31.624Z,41.25
2023-01-17T15:13:29.802Z,28.98
2023-01-17T15:16:23.675Z,39.30
2023-01-17T15:19:14.397Z,67.40
2023-01-17T15:21:59.843Z,78.13
2023-01-17T15:24:46.710Z,82.65
2023-01-17T15:27:32.694Z,65.88
2023-01-17T15:30:18.865Z,56.67
2023-01-17T15:33:04.511Z,46.30
2023-01-17T15:35:57.832Z,49.83
2023-01-17T15:38:56.961Z,41.65
2023-01-17T15:41:42.555Z,58.22
2023-01-17T15:44:42.656Z,49.15
2023-01-17T15:47:36.049Z,48.90
2023-01-17T15:50:27.716Z,57.97
2023-01-17T15:53:36.180Z,52.17
2023-01-17T15:56:32.569Z,53.17
2023-01-17T15:59:32.108Z,53.95
2023-01-17T16:02:43.699Z,58.47
2023-01-17T16:05:32.968Z,72.47
2023-01-17T16:08:39.841Z,72.00
2023-01-17T16:11:25.508Z,91.97
2023-01-17T16:14:10.846Z,107.38
2023-01-17T16:17:03.762Z,90.82
2023-01-17T16:19:50.008Z,65.35
2023-01-17T16:22:35.553Z,65.03
2023-01-17T16:25:22.979Z,51.40
2023-01-17T16:28:08.659Z,48.58
2023-01-17T16:30:54.676Z,59.70
2023-01-17T16:33:42.319Z,68.38
2023-01-17T16:36:27.971Z,81.30
2023-01-17T16:39:15.476Z,99.63
2023-01-17T16:42:06.513Z,82.32
2023-01-17T16:44:53.189Z,62.85
2023-01-17T16:47:47.442Z,82.93
2023-01-17T16:50:33.879Z,89.38
2023-01-17T16:53:25.008Z,105.18
2023-01-17T16:56:14.886Z,174.45
2023-01-17T16:59:00.405Z,133.55
2023-01-17T17:01:47.080Z,98.78
2023-01-17T17:04:32.884Z,76.40
2023-01-17T17:07:18.513Z,78.13
2023-01-17T17:10:04.454Z,74.07
2023-01-17T17:12:50.308Z,72.55
2023-01-17T17:15:35.902Z,59.58
2023-01-17T17:18:21.565Z,60.60
2023-01-17T17:21:07.015Z,50.30
2023-01-17T17:23:58.086Z,56.80
2023-01-17T17:26:44.662Z,47.08
2023-01-17T17:29:30.192Z,43.40
2023-01-17T17:32:15.498Z,51.10
2023-01-17T17:35:00.959Z,50.17
2023-01-17T17:37:46.147Z,55.55
2023-01-17T17:40:34.483Z,49.80
2023-01-17T17:43:20.901Z,51.28
2023-01-17T17:46:07.331Z,47.70
2023-01-17T17:48:53.519Z,48.13
2023-01-17T17:51:40.405Z,41.90
2023-01-17T17:54:27.378Z,42.85
2023-01-17T17:57:16.347Z,42.83
2023-01-17T18:00:09.416Z,48.35
2023-01-17T18:02:58.620Z,40.10
2023-01-17T18:05:46.798Z,32.60
2023-01-17T18:08:35.197Z,36.58
2023-01-17T18:11:26.871Z,40.95
2023-01-17T18:14:15.397Z,44.78
2023-01-17T18:17:00.963Z,50.17
2023-01-17T18:19:46.770Z,83.93
2023-01-17T18:22:33.727Z,75.28
2023-01-17T18:25:19.923Z,81.70
2023-01-17T18:28:05.282Z,124.78
2023-01-17T18:30:50.774Z,138.80
2023-01-17T18:33:38.642Z,123.88
2023-01-17T18:36:24.973Z,120.75
2023-01-17T18:39:25.621Z,118.72
2023-01-17T18:42:12.010Z,110.30
2023-01-17T18:44:57.338Z,103.57
2023-01-17T18:47:42.702Z,171.57
2023-01-17T18:50:28.305Z,122.63
2023-01-17T18:53:13.991Z,74.07
2023-01-17T18:56:02.983Z,75.72
2023-01-17T18:58:50.472Z,65.03
2023-01-17T19:01:36.587Z,52.13
2023-01-17T19:04:22.615Z,56.88
2023-01-17T19:07:08.502Z,67.30
2023-01-17T19:09:54.775Z,74.55
2023-01-17T19:12:40.465Z,65.22
2023-01-17T19:15:25.788Z,57.22
2023-01-17T19:18:11.400Z,45.30
2023-01-17T19:21:11.331Z,45.17
2023-01-17T19:23:57.937Z,36.72
2023-01-17T19:26:43.569Z,34.05
2023-01-17T19:29:29.374Z,34.15
2023-01-17T19:32:15.344Z,24.42
2023-01-17T19:35:01.973Z,32.35
2023-01-17T19:37:50.957Z,29.52
2023-01-17T19:40:37.042Z,28.70
2023-01-17T19:43:23.294Z,26.25
2023-01-17T19:46:11.027Z,24.45
2023-01-17T19:48:58.078Z,34.47
2023-01-17T19:51:44.616Z,37.63
2023-01-17T19:54:33.398Z,41.13
2023-01-17T19:57:22.154Z,54.88
2023-01-17T20:00:12.389Z,64.93
2023-01-17T20:02:59.226Z,66.97
2023-01-17T20:05:46.236Z,56.42
2023-01-17T20:08:33.632Z,60.80
2023-01-17T20:11:22.322Z,45.95
2023-01-17T20:14:13.650Z,39.70
2023-01-17T20:16:59.082Z,36.75
2023-01-17T20:19:46.369Z,32.33
2023-01-17T20:22:31.720Z,33.20
2023-01-17T20:25:17.352Z,30.65
2023-01-17T20:28:04.932Z,31.27
2023-01-17T20:30:50.224Z,32.22
2023-01-17T20:33:36.748Z,28.27
2023-01-17T20:36:24.842Z,40.33
2023-01-17T20:39:13.034Z,54.90
2023-01-17T20:41:58.622Z,45.65
2023-01-17T20:44:45.881Z,42.45
2023-01-17T20:47:32.066Z,31.17
2023-01-17T20:50:20.389Z,35.92
2023-01-17T20:53:05.770Z,35.15
2023-01-17T20:55:56.780Z,32.00
2023-01-17T20:58:42.469Z,38.30
2023-01-17T21:01:28.500Z,55.13
2023-01-17T21:04:15.029Z,40.53
2023-01-17T21:07:00.800Z,39.97
2023-01-17T21:09:46.102Z,45.83
2023-01-17T21:12:31.819Z,38.10
2023-01-17T21:15:17.611Z,39.17
2023-01-17T21:18:02.978Z,40.60
2023-01-17T21:20:49.204Z,38.17
2023-01-17T21:23:35.836Z,51.38
2023-01-17T21:26:25.634Z,56.63
2023-01-17T21:29:12.471Z,52.25
2023-01-17T21:31:58.205Z,56.30
2023-01-17T21:34:43.761Z,59.47
2023-01-17T21:37:29.348Z,55.88
2023-01-17T21:40:15.449Z,50.90
2023-01-17T21:43:00.863Z,39.38
2023-01-17T21:45:46.972Z,40.67
2023-01-17T21:48:35.537Z,17.55
2023-01-17T21:51:24.330Z,19.23
2023-01-17T21:54:09.519Z,23.63
2023-01-17T21:57:13.564Z,24.08
2023-01-17T21:59:58.958Z,21.65
2023-01-17T22:02:46.612Z,15.18
2023-01-17T22:05:33.688Z,15.43
2023-01-17T22:08:18.970Z,20.75
2023-01-17T22:11:18.534Z,28.75
2023-01-17T22:14:04.674Z,33.80
2023-01-17T22:16:50.395Z,25.33
2023-01-17T22:19:36.094Z,25.75
2023-01-17T22:22:21.650Z,30.20
2023-01-17T22:25:07.365Z,26.33
2023-01-17T22:27:53.178Z,26.33
2023-01-17T22:30:38.753Z,32.30
2023-01-17T22:33:24.090Z,45.70
2023-01-17T22:36:10.808Z,74.28
2023-01-17T22:38:56.884Z,72.32
2023-01-17T22:41:42.879Z,53.08
2023-01-17T22:44:28.118Z,31.85
2023-01-17T22:47:14.218Z,37.38
2023-01-17T22:49:59.864Z,27.95
2023-01-17T22:52:45.326Z,12.77
2023-01-17T22:55:31.046Z,10.95
2023-01-17T22:58:16.634Z,11.32
2023-01-17T23:01:07.150Z,11.00
2023-01-17T23:03:55.698Z,11.90
2023-01-17T23:06:41.918Z,13.07
2023-01-17T23:09:27.806Z,18.40
2023-01-17T23:12:13.467Z,16.10
2023-01-17T23:15:31.662Z,13.82
2023-01-17T23:18:35.983Z,30.58
2023-01-17T23:21:21.444Z,20.52
2023-01-17T23:24:06.819Z,19.10
2023-01-17T23:27:10.825Z,19.67
2023-01-17T23:29:56.524Z,23.00
2023-01-17T23:32:51.015Z,27.67
2023-01-17T23:35:41.698Z,20.52
2023-01-17T23:38:30.468Z,39.08
2023-01-17T23:41:34.649Z,25.92
2023-01-17T23:44:20.096Z,18.20
2023-01-17T23:47:05.563Z,12.15
2023-01-17T23:49:50.931Z,13.95
2023-01-17T23:52:36.276Z,11.00
2023-01-17T23:55:21.864Z,10.35
2023-01-17T23:58:11.047Z,11.50
